Time;durP1;ratioP1;P1;durP2;ratioP2;P2;SDS_P1;SDS_P2;PMS_P1;PMS_P2;Temp;Humidity;BMP_temperature;BMP_pressure;BME280_temperature;BME280_humidity;BME280_pressure;Samples;Min_cycle;Max_cycle;Signal;HPM_P1;HPM_P2
2021/06/15 00:01:09;;;;;;;7.70;2.25;;;;;;;13.57;67.29;96252.50;5114498;28;20102;-60
2021/06/15 00:03:35;;;;;;;2.45;2.20;;;;;;;13.60;66.68;96252.31;5114505;28;20091;-63
2021/06/15 00:06:01;;;;;;;2.80;2.40;;;;;;;13.52;66.48;96247.50;5114615;28;20032;-60
2021/06/15 00:08:26;;;;;;;4.63;1.50;;;;;;;13.56;66.77;96246.38;5114466;28;20419;-60
2021/06/15 00:10:52;;;;;;;2.53;1.70;;;;;;;13.60;66.37;96242.66;5114417;28;20064;-61
2021/06/15 00:13:17;;;;;;;5.78;2.00;;;;;;;13.59;66.93;96237.47;5114191;28;20110;-60
2021/06/15 00:15:47;;;;;;;2.63;1.90;;;;;;;13.61;66.48;96241.72;5114074;28;20047;-61
2021/06/15 00:18:15;;;;;;;6.75;1.65;;;;;;;13.56;66.92;96237.66;5114092;28;20496;-60
2021/06/15 00:20:41;;;;;;;3.95;1.98;;;;;;;13.57;66.44;96245.44;5114229;28;20019;-60
2021/06/15 00:23:07;;;;;;;3.33;2.42;;;;;;;13.59;66.66;96227.81;5114182;28;20023;-60
2021/06/15 00:25:32;;;;;;;6.20;1.90;;;;;;;13.62;66.56;96221.53;5114100;28;20020;-61
2021/06/15 00:27:58;;;;;;;2.22;1.77;;;;;;;13.60;66.11;96224.25;5114138;28;20026;-61
2021/06/15 00:30:24;;;;;;;4.38;1.90;;;;;;;13.62;65.88;96227.66;5114100;28;20015;-62
2021/06/15 00:32:51;;;;;;;2.67;1.90;;;;;;;13.62;65.93;96232.06;5114153;28;20039;-61
2021/06/15 00:35:17;;;;;;;2.72;1.60;;;;;;;13.67;65.65;96230.03;5113976;28;20032;-60
2021/06/15 00:37:43;;;;;;;5.50;1.67;;;;;;;13.71;66.31;96222.81;5113939;28;20032;-62
2021/06/15 00:40:09;;;;;;;4.35;2.28;;;;;;;13.70;65.89;96221.94;5113908;28;20385;-61
2021/06/15 00:42:35;;;;;;;4.03;1.58;;;;;;;13.73;65.94;96218.31;5114028;28;20069;-62
2021/06/15 00:45:01;;;;;;;2.20;1.88;;;;;;;13.72;65.94;96224.50;5113615;28;20019;-60
2021/06/15 00:47:27;;;;;;;2.50;1.90;;;;;;;13.78;65.52;96216.28;5113758;28;20433;-61
2021/06/15 00:49:54;;;;;;;5.22;1.58;;;;;;;13.76;65.63;96218.97;5113727;28;20011;-61
2021/06/15 00:52:20;;;;;;;2.08;1.25;;;;;;;13.76;66.17;96213.72;5113749;28;20051;-61
2021/06/15 00:54:46;;;;;;;2.55;2.25;;;;;;;13.82;65.80;96211.69;5113825;28;20032;-61
2021/06/15 00:57:26;;;;;;;4.13;1.70;;;;;;;13.75;66.01;96217.31;5113594;28;20064;-62
2021/06/15 00:59:51;;;;;;;4.43;1.55;;;;;;;13.77;66.02;96219.84;5113662;28;20035;-62
2021/06/15 01:02:17;;;;;;;3.22;1.73;;;;;;;13.79;66.33;96228.50;5113515;28;20020;-61
2021/06/15 01:04:42;;;;;;;2.40;1.80;;;;;;;13.86;64.91;96208.81;5113456;28;20027;-61
2021/06/15 01:07:18;;;;;;;2.30;1.45;;;;;;;13.84;65.18;96215.94;5113561;28;20081;-60
2021/06/15 01:10:10;;;;;;;2.15;1.70;;;;;;;13.81;65.43;96225.78;5095442;28;20054;-60
2021/06/15 01:12:36;;;;;;;7.45;2.35;;;;;;;13.86;65.62;96218.47;5113650;28;20031;-60
2021/06/15 01:15:23;;;;;;;2.50;1.55;;;;;;;13.89;65.46;96215.69;5113344;28;20047;-60
2021/06/15 01:17:59;;;;;;;6.70;1.70;;;;;;;13.88;65.35;96216.63;5113531;28;20106;-60
2021/06/15 01:20:30;;;;;;;3.42;1.65;;;;;;;13.89;65.30;96213.91;5113497;28;20076;-63
2021/06/15 01:23:17;;;;;;;2.70;1.77;;;;;;;13.87;65.53;96215.75;5113511;28;20024;-60
2021/06/15 01:26:01;;;;;;;4.07;1.38;;;;;;;13.85;65.64;96229.94;5113305;28;20529;-62
2021/06/15 01:28:44;;;;;;;3.38;1.83;;;;;;;13.87;65.23;96233.31;5113346;28;20032;-61
2021/06/15 01:31:24;;;;;;;2.25;1.65;;;;;;;13.85;65.31;96227.31;5113358;28;20100;-60
2021/06/15 01:33:58;;;;;;;3.65;1.70;;;;;;;13.87;65.82;96210.50;5113281;28;20019;-61
2021/06/15 01:36:28;;;;;;;4.15;1.58;;;;;;;13.85;65.47;96215.00;5113284;28;20042;-62
2021/06/15 01:38:59;;;;;;;2.95;1.27;;;;;;;13.85;66.16;96209.72;5113110;28;20028;-62
2021/06/15 01:41:33;;;;;;;4.25;1.52;;;;;;;13.87;65.22;96207.00;5113152;28;20115;-61
2021/06/15 01:44:04;;;;;;;4.90;1.92;;;;;;;13.80;65.54;96205.66;5113407;28;20028;-60
2021/06/15 01:46:37;;;;;;;6.78;1.60;;;;;;;13.79;65.77;96204.84;5113321;28;20020;-62
2021/06/15 01:49:09;;;;;;;2.65;1.67;;;;;;;13.87;66.33;96210.50;5113281;28;20035;-59
2021/06/15 01:51:36;;;;;;;5.88;2.20;;;;;;;13.92;65.72;96198.88;5113072;28;20032;-62
2021/06/15 01:54:09;;;;;;;4.88;1.80;;;;;;;13.91;66.32;96200.69;5113013;28;20069;-60
2021/06/15 01:56:38;;;;;;;4.55;2.08;;;;;;;13.91;66.09;96213.81;5114565;28;20024;-61
2021/06/15 01:59:07;;;;;;;4.50;1.80;;;;;;;13.88;65.67;96216.63;5117014;28;20023;-62
2021/06/15 02:01:39;;;;;;;3.63;1.75;;;;;;;13.88;65.20;96222.69;5116841;28;20080;-62
2021/06/15 02:04:06;;;;;;;2.25;1.80;;;;;;;13.84;65.39;96226.44;5116823;28;20106;-62
2021/06/15 02:06:34;;;;;;;4.75;1.60;;;;;;;13.80;65.60;96234.59;5116866;28;20634;-60
2021/06/15 02:09:03;;;;;;;7.32;2.22;;;;;;;13.81;65.51;96233.69;5116799;28;20019;-60
2021/06/15 02:11:31;;;;;;;4.30;1.90;;;;;;;13.86;65.44;96235.09;5116695;28;20092;-61
2021/06/15 02:13:59;;;;;;;4.63;1.40;;;;;;;13.83;65.53;96229.16;5116541;28;20092;-62
2021/06/15 02:16:27;;;;;;;2.75;1.73;;;;;;;13.87;65.66;96230.69;5116337;28;20379;-62
2021/06/15 02:18:55;;;;;;;3.55;1.70;;;;;;;13.87;65.44;96228.91;5116525;28;20077;-62
2021/06/15 02:21:22;;;;;;;5.68;1.90;;;;;;;13.87;65.46;96233.31;5116622;28;20019;-62
2021/06/15 02:23:49;;;;;;;2.92;1.60;;;;;;;13.85;65.02;96229.94;5116525;28;20016;-61
2021/06/15 02:26:19;;;;;;;4.60;2.00;;;;;;;13.90;65.76;96228.75;5116388;28;20015;-60
2021/06/15 02:28:45;;;;;;;5.07;1.98;;;;;;;13.95;66.47;96230.25;5116366;28;20020;-60
2021/06/15 02:31:19;;;;;;;3.75;1.88;;;;;;;13.93;66.25;96235.59;5116462;28;20053;-61
2021/06/15 02:33:49;;;;;;;3.17;1.52;;;;;;;13.94;66.05;96239.09;5098091;28;20496;-61
2021/06/15 02:36:22;;;;;;;2.22;1.50;;;;;;;13.96;66.06;96238.06;5116246;28;20050;-60
2021/06/15 02:38:53;;;;;;;2.83;1.92;;;;;;;13.90;66.08;96247.13;5116057;28;20537;-62
2021/06/15 02:41:20;;;;;;;2.20;1.80;;;;;;;13.90;66.04;96241.03;5116311;28;20114;-62
2021/06/15 02:43:50;;;;;;;7.85;2.42;;;;;;;13.83;66.02;96237.91;5116057;28;20024;-60
2021/06/15 02:46:17;;;;;;;2.58;1.60;;;;;;;13.89;65.93;96245.44;5116102;28;20585;-60
2021/06/15 02:48:52;;;;;;;3.65;2.10;;;;;;;13.89;65.73;96240.19;5097881;28;20019;-60
2021/06/15 02:51:20;;;;;;;1.95;1.58;;;;;;;13.94;66.26;96244.34;5115960;28;20536;-62
2021/06/15 02:54:02;;;;;;;3.13;2.38;;;;;;;13.85;67.61;96251.78;5115922;28;20024;-60
2021/06/15 02:56:30;;;;;;;3.80;2.00;;;;;;;13.94;67.16;96247.78;5115920;28;20397;-61
2021/06/15 02:58:56;;;;;;;5.55;1.70;;;;;;;14.02;68.00;96253.50;5115666;28;20111;-62
2021/06/15 03:01:22;;;;;;;2.58;2.15;;;;;;;14.05;68.15;96260.34;5115741;28;20031;-63
2021/06/15 03:03:47;;;;;;;2.83;1.90;;;;;;;14.07;67.37;96255.00;5115739;28;20016;-62
2021/06/15 03:06:13;;;;;;;7.35;2.15;;;;;;;14.09;66.89;96255.78;5115710;28;20456;-61
2021/06/15 03:08:40;;;;;;;3.42;2.17;;;;;;;14.13;66.81;96262.56;5115372;28;20541;-61
2021/06/15 03:11:06;;;;;;;2.80;1.95;;;;;;;14.15;67.79;96269.41;5115691;28;20110;-60
2021/06/15 03:13:49;;;;;;;5.20;2.10;;;;;;;14.17;67.30;96279.03;5115580;28;20093;-61
2021/06/15 03:16:17;;;;;;;6.75;1.75;;;;;;;14.20;68.33;96276.19;5097178;28;20477;-60
2021/06/15 03:18:50;;;;;;;2.28;1.90;;;;;;;14.11;68.35;96273.16;5115336;28;20465;-61
2021/06/15 03:21:20;;;;;;;4.57;2.03;;;;;;;14.12;68.65;96276.66;5115523;28;20038;-62
2021/06/15 03:23:49;;;;;;;5.82;2.00;;;;;;;14.11;68.13;96275.78;5115433;28;20106;-60
2021/06/15 03:26:25;;;;;;;3.42;1.70;;;;;;;14.10;67.63;96275.88;5115334;28;20024;-60
2021/06/15 03:29:01;;;;;;;2.92;1.80;;;;;;;14.12;68.42;96284.53;5115189;28;20118;-61
2021/06/15 03:31:31;;;;;;;16.08;2.50;;;;;;;14.05;68.33;96284.00;5115315;28;20038;-61
2021/06/15 03:33:59;;;;;;;2.40;2.20;;;;;;;14.09;69.29;96285.53;5115177;28;20023;-62
2021/06/15 03:36:25;;;;;;;3.28;1.83;;;;;;;14.05;67.79;96291.06;5115154;28;20059;-59
2021/06/15 03:38:55;;;;;;;2.65;1.83;;;;;;;14.05;66.66;96293.72;5114821;28;20084;-62
2021/06/15 03:41:22;;;;;;;2.57;2.07;;;;;;;14.05;67.00;96289.28;5115271;28;20046;-61
2021/06/15 03:43:54;;;;;;;2.95;2.17;;;;;;;14.05;67.45;96286.66;5115061;28;20030;-60
2021/06/15 03:46:23;;;;;;;7.35;2.33;;;;;;;14.08;68.82;96283.00;5114971;28;20102;-60
2021/06/15 03:48:51;;;;;;;2.53;1.77;;;;;;;14.06;68.47;96285.69;5115011;28;20096;-61
2021/06/15 03:51:23;;;;;;;10.20;2.05;;;;;;;14.13;67.99;96291.47;5114737;28;20050;-62
2021/06/15 03:53:50;;;;;;;6.30;2.83;;;;;;;14.07;69.88;96281.31;5114744;28;20145;-60
2021/06/15 03:56:17;;;;;;;4.47;2.28;;;;;;;14.06;69.77;96288.34;5114662;28;20038;-62
2021/06/15 03:58:46;;;;;;;2.60;1.90;;;;;;;14.13;69.49;96299.38;5114610;28;20027;-62
2021/06/15 04:01:14;;;;;;;2.47;1.77;;;;;;;14.10;69.46;96289.03;5114632;28;20023;-62
2021/06/15 04:03:41;;;;;;;7.05;2.10;;;;;;;14.12;69.17;96290.63;5114492;28;20031;-61
2021/06/15 04:06:09;;;;;;;2.30;2.10;;;;;;;14.06;70.18;96290.97;5114464;28;20094;-61
2021/06/15 04:08:37;;;;;;;3.90;2.70;;;;;;;14.07;71.09;96297.94;5114451;28;20027;-62
2021/06/15 04:11:04;;;;;;;6.07;2.47;;;;;;;14.01;70.17;96293.03;5114393;28;20108;-63
2021/06/15 04:13:31;;;;;;;8.00;2.10;;;;;;;13.95;71.78;96294.22;5114380;28;20030;-60
2021/06/15 04:15:58;;;;;;;3.25;2.17;;;;;;;13.89;72.34;96294.56;5114083;28;20134;-61
2021/06/15 04:18:27;;;;;;;3.55;2.33;;;;;;;13.84;72.10;96293.94;5113936;28;20467;-63
2021/06/15 04:20:55;;;;;;;3.88;2.53;;;;;;;13.83;72.31;96295.75;5114043;28;20500;-61
2021/06/15 04:23:29;;;;;;;3.83;2.15;;;;;;;13.64;72.89;96295.91;5114258;28;20385;-60
2021/06/15 04:25:56;;;;;;;5.25;2.70;;;;;;;13.61;72.98;96293.44;5114218;28;20070;-63
2021/06/15 04:28:21;;;;;;;3.25;2.40;;;;;;;13.67;72.66;96294.88;5114009;28;20027;-62
2021/06/15 04:30:47;;;;;;;3.05;2.75;;;;;;;13.70;73.79;96299.97;5114026;28;20022;-61
2021/06/15 04:33:16;;;;;;;2.80;2.20;;;;;;;13.70;72.11;96305.22;5113948;28;20027;-63
2021/06/15 04:35:52;;;;;;;3.45;2.47;;;;;;;13.66;72.35;96301.91;5114085;28;20081;-60
2021/06/15 04:38:45;;;;;;;3.58;2.40;;;;;;;13.69;73.19;96312.25;5114011;28;20481;-62
2021/06/15 04:41:28;;;;;;;3.50;2.53;;;;;;;13.64;74.03;96317.75;5110159;28;20039;-62
2021/06/15 04:44:02;;;;;;;3.85;2.97;;;;;;;13.69;74.07;96319.31;5113890;28;20065;-62
2021/06/15 04:46:47;;;;;;;5.28;2.83;;;;;;;13.74;74.74;96318.13;5113897;28;20035;-63
2021/06/15 04:49:35;;;;;;;3.35;3.03;;;;;;;13.75;73.47;96324.22;5113806;28;20027;-63
2021/06/15 04:52:04;;;;;;;4.60;3.30;;;;;;;13.76;74.81;96326.75;5113749;28;20047;-63
2021/06/15 04:54:44;;;;;;;4.78;4.10;;;;;;;13.77;74.89;96325.84;5113616;28;20020;-62
2021/06/15 04:57:13;;;;;;;8.18;3.47;;;;;;;13.79;74.43;96332.78;5113687;28;20065;-63
2021/06/15 04:59:41;;;;;;;2.80;2.58;;;;;;;13.84;73.57;96336.00;5113684;28;20461;-63
2021/06/15 05:02:07;;;;;;;3.70;2.25;;;;;;;13.83;73.74;96332.53;5113549;28;20023;-63
2021/06/15 05:04:35;;;;;;;2.92;2.67;;;;;;;13.82;73.74;96340.50;5113523;28;20443;-63
2021/06/15 05:07:02;;;;;;;2.55;2.35;;;;;;;13.80;73.94;96348.47;5113580;28;20043;-61
2021/06/15 05:09:29;;;;;;;3.95;3.55;;;;;;;13.78;74.75;96345.06;5113664;28;20423;-61
2021/06/15 05:11:56;;;;;;;3.47;2.83;;;;;;;13.85;74.79;96342.97;5113592;28;20031;-60
2021/06/15 05:14:27;;;;;;;7.63;2.70;;;;;;;13.90;74.62;96349.69;5113313;28;20035;-61
2021/06/15 05:16:54;;;;;;;3.92;2.80;;;;;;;13.93;73.76;96355.72;5113520;28;20024;-63
2021/06/15 05:19:19;;;;;;;3.72;2.67;;;;;;;13.98;74.39;96351.03;5113292;28;20031;-61
2021/06/15 05:22:25;;;;;;;7.30;3.08;;;;;;;14.05;74.56;96348.94;5113461;28;20028;-61
2021/06/15 05:24:56;;;;;;;4.07;3.22;;;;;;;14.11;75.01;96351.19;5110063;28;20043;-61
2021/06/15 05:27:23;;;;;;;3.67;3.10;;;;;;;14.18;74.67;96351.72;5113447;28;20386;-59
2021/06/15 05:29:49;;;;;;;6.00;4.05;;;;;;;14.22;74.45;96347.97;5113528;28;20020;-60
2021/06/15 05:32:15;;;;;;;4.82;3.20;;;;;;;14.24;74.28;96346.13;5117495;28;20035;-60
2021/06/15 05:34:41;;;;;;;4.07;3.47;;;;;;;14.30;74.39;96348.38;5117578;28;20023;-62
2021/06/15 05:37:08;;;;;;;5.03;3.38;;;;;;;14.29;74.27;96351.97;5117379;28;20024;-60
2021/06/15 05:39:34;;;;;;;4.45;3.30;;;;;;;14.28;73.62;96352.91;5117399;28;20031;-60
2021/06/15 05:42:00;;;;;;;3.30;3.00;;;;;;;14.20;74.07;96349.84;5117266;28;20081;-61
2021/06/15 05:44:27;;;;;;;3.00;2.78;;;;;;;14.27;73.70;96346.78;5117346;28;20036;-62
2021/06/15 05:46:52;;;;;;;3.25;2.88;;;;;;;14.35;73.60;96350.75;5117237;28;20023;-61
2021/06/15 05:49:18;;;;;;;3.80;2.60;;;;;;;14.43;74.13;96343.31;5117239;28;20099;-62
2021/06/15 05:51:43;;;;;;;5.32;2.60;;;;;;;14.49;72.94;96344.72;5117127;28;20096;-61
2021/06/15 05:54:09;;;;;;;8.70;2.78;;;;;;;14.59;73.34;96345.03;5117060;28;20389;-62
2021/06/15 05:56:34;;;;;;;5.55;3.25;;;;;;;14.64;73.36;96343.00;5117006;28;20019;-61
2021/06/15 05:59:00;;;;;;;5.00;2.70;;;;;;;14.73;73.23;96350.38;5117028;28;20102;-63
2021/06/15 06:01:26;;;;;;;2.97;2.55;;;;;;;14.78;72.90;96347.50;5117038;28;20015;-61
2021/06/15 06:04:03;;;;;;;3.47;2.63;;;;;;;14.85;72.74;96343.59;5116899;28;20020;-61
2021/06/15 06:09:14;;;;;;;6.60;2.50;;;;;;;15.05;73.87;96340.72;5117244;28;20107;-61
2021/06/15 06:11:40;;;;;;;4.68;2.55;;;;;;;15.13;74.02;96341.94;5116744;28;20050;-61
2021/06/15 06:14:06;;;;;;;4.28;2.53;;;;;;;15.25;73.79;96344.78;5116766;28;20023;-61
2021/06/15 06:16:33;;;;;;;4.22;2.70;;;;;;;15.28;73.30;96336.69;5116532;28;20051;-63
2021/06/15 06:18:59;;;;;;;5.50;2.60;;;;;;;15.37;72.24;96346.69;5116463;28;20070;-60
2021/06/15 06:21:27;;;;;;;5.57;2.83;;;;;;;15.38;72.39;96339.63;5116485;28;20065;-60
2021/06/15 06:23:53;;;;;;;4.00;2.80;;;;;;;15.44;72.57;96346.31;5116534;28;20032;-61
2021/06/15 06:26:19;;;;;;;2.95;2.40;;;;;;;15.45;72.36;96338.31;5116458;28;20065;-62
2021/06/15 06:28:44;;;;;;;3.95;3.00;;;;;;;15.48;71.41;96329.34;5116432;28;20023;-63
2021/06/15 06:31:10;;;;;;;5.95;3.10;;;;;;;15.53;71.62;96335.19;5116297;28;20111;-63
2021/06/15 06:33:35;;;;;;;4.32;3.17;;;;;;;15.59;70.47;96329.53;5116590;28;20023;-61
2021/06/15 06:36:01;;;;;;;4.45;2.47;;;;;;;15.69;71.72;96334.25;5116320;28;20024;-61
2021/06/15 06:38:26;;;;;;;6.47;2.63;;;;;;;15.74;72.08;96333.00;5116204;28;20039;-61
2021/06/15 06:40:52;;;;;;;3.83;3.10;;;;;;;15.78;72.43;96328.41;5116173;28;20032;-61
2021/06/15 06:43:17;;;;;;;2.90;2.60;;;;;;;15.85;72.30;96335.00;5097345;28;20075;-62
2021/06/15 06:45:43;;;;;;;6.65;2.83;;;;;;;15.92;72.25;96324.88;5116065;28;20031;-63
2021/06/15 06:48:10;;;;;;;3.47;2.65;;;;;;;15.92;69.08;96333.66;5116003;28;20023;-60
2021/06/15 06:50:37;;;;;;;4.40;3.35;;;;;;;15.87;70.39;96321.72;5116063;28;20480;-60
2021/06/15 06:53:02;;;;;;;5.28;2.15;;;;;;;16.01;69.82;96324.34;5115881;28;20042;-63
2021/06/15 06:55:29;;;;;;;7.78;3.03;;;;;;;16.10;69.77;96325.53;5115939;28;20024;-63
2021/06/15 06:57:55;;;;;;;3.10;2.47;;;;;;;16.23;70.13;96322.13;5115756;28;20454;-61
2021/06/15 07:00:21;;;;;;;2.95;2.40;;;;;;;16.33;69.99;96317.09;5115892;28;20032;-63
2021/06/15 07:02:49;;;;;;;3.75;2.22;;;;;;;16.44;66.67;96316.41;5115862;28;20066;-62
2021/06/15 07:05:15;;;;;;;4.78;2.20;;;;;;;16.60;67.27;96317.09;5115763;28;20019;-62
2021/06/15 07:07:41;;;;;;;3.00;2.10;;;;;;;16.77;68.51;96313.31;5115627;28;20024;-61
2021/06/15 07:10:07;;;;;;;4.03;2.22;;;;;;;16.96;68.87;96319.16;5115664;28;20022;-62
2021/06/15 07:12:33;;;;;;;3.97;2.63;;;;;;;17.13;69.23;96318.88;5115511;28;20012;-61
2021/06/15 07:14:59;;;;;;;5.63;2.30;;;;;;;17.22;67.27;96319.22;5115271;28;20489;-62
2021/06/15 07:17:24;;;;;;;6.07;2.17;;;;;;;17.32;68.24;96325.56;5115501;28;20084;-62
2021/06/15 07:19:50;;;;;;;3.08;2.13;;;;;;;17.41;65.60;96317.00;5115330;28;20021;-63
2021/06/15 07:22:16;;;;;;;4.18;1.70;;;;;;;17.43;62.68;96323.00;5115487;28;20024;-62
2021/06/15 07:24:42;;;;;;;1.50;1.40;;;;;;;17.40;62.47;96306.53;5115417;28;20042;-61
2021/06/15 07:27:08;;;;;;;2.88;2.00;;;;;;;17.35;61.98;96311.28;5115439;28;20487;-62
2021/06/15 07:29:34;;;;;;;2.08;1.88;;;;;;;17.26;62.52;96313.63;5115214;28;20373;-60
2021/06/15 07:32:00;;;;;;;2.60;1.90;;;;;;;17.33;63.15;96311.38;5115173;28;20106;-61
2021/06/15 07:34:25;;;;;;;3.53;2.15;;;;;;;17.26;60.97;96304.84;5115097;28;20020;-62
2021/06/15 07:36:51;;;;;;;5.10;2.00;;;;;;;17.30;60.75;96309.81;5115137;28;20028;-62
2021/06/15 07:39:17;;;;;;;2.63;2.00;;;;;;;17.23;62.40;96312.97;5114957;28;20469;-62
2021/06/15 07:41:43;;;;;;;3.28;1.92;;;;;;;17.24;61.62;96314.66;5115148;28;20072;-61
2021/06/15 07:44:08;;;;;;;3.55;2.00;;;;;;;17.32;62.51;96304.41;5114858;28;20016;-61
2021/06/15 07:46:34;;;;;;;2.45;1.95;;;;;;;17.38;62.90;96305.78;5114853;28;20059;-60
2021/06/15 07:48:59;;;;;;;7.75;2.00;;;;;;;17.36;62.66;96305.88;5114883;28;20050;-61
2021/06/15 07:51:25;;;;;;;4.55;2.17;;;;;;;17.44;62.40;96308.00;5114750;28;20028;-60
2021/06/15 07:53:51;;;;;;;4.10;2.17;;;;;;;17.49;62.85;96303.22;5113722;28;20042;-60
2021/06/15 07:56:16;;;;;;;6.85;2.22;;;;;;;17.61;59.94;96303.34;5114722;28;20488;-60
2021/06/15 07:58:42;;;;;;;3.67;2.20;;;;;;;17.69;62.13;96306.28;5114776;28;20028;-60
2021/06/15 08:01:08;;;;;;;6.32;2.05;;;;;;;17.70;61.95;96309.78;5114516;28;20027;-61
2021/06/15 08:03:33;;;;;;;4.80;2.03;;;;;;;17.84;62.24;96307.00;5114618;28;20069;-61
2021/06/15 08:05:59;;;;;;;7.20;1.98;;;;;;;17.91;64.58;96295.00;5114493;28;20031;-62
2021/06/15 08:08:25;;;;;;;3.53;2.35;;;;;;;17.92;61.78;96298.50;5114436;28;20488;-62
2021/06/15 08:10:51;;;;;;;5.97;3.40;;;;;;;17.98;60.65;96289.28;5114282;28;20095;-60
2021/06/15 08:13:17;;;;;;;2.30;2.08;;;;;;;17.98;61.06;96295.44;5114333;28;20481;-61
2021/06/15 08:15:42;;;;;;;7.00;2.17;;;;;;;18.10;60.54;96296.38;5114185;28;20048;-62
2021/06/15 08:18:08;;;;;;;4.72;1.88;;;;;;;18.20;59.24;96299.19;5114143;28;20019;-60
2021/06/15 08:20:34;;;;;;;2.45;1.88;;;;;;;18.23;60.04;96293.66;5114299;28;20031;-61
2021/06/15 08:23:00;;;;;;;8.20;2.45;;;;;;;18.31;63.01;96298.41;5114229;28;20023;-61
2021/06/15 08:25:26;;;;;;;2.97;2.08;;;;;;;18.42;61.89;96298.44;5114248;28;20110;-61
2021/06/15 08:27:52;;;;;;;2.17;1.63;;;;;;;18.56;59.27;96283.34;5114097;28;20027;-62
2021/06/15 08:30:18;;;;;;;5.63;2.00;;;;;;;18.68;60.53;96282.44;5114302;28;20015;-62
2021/06/15 08:32:44;;;;;;;5.70;1.85;;;;;;;18.69;59.20;96280.59;5114128;28;20111;-61
2021/06/15 08:35:10;;;;;;;16.77;2.58;;;;;;;18.86;60.92;96289.09;5114115;28;20121;-63
2021/06/15 08:37:36;;;;;;;3.70;2.10;;;;;;;18.91;60.88;96287.78;5113977;28;20026;-60
2021/06/15 08:40:03;;;;;;;10.32;5.25;;;;;;;18.93;56.52;96287.66;5114016;28;20027;-63
2021/06/15 08:42:29;;;;;;;4.28;2.70;;;;;;;18.91;55.44;96289.59;5113949;28;20027;-62
2021/06/15 08:44:55;;;;;;;2.97;2.00;;;;;;;18.92;54.53;96288.63;5113727;28;20019;-63
2021/06/15 08:47:21;;;;;;;3.72;2.30;;;;;;;18.97;55.86;96294.44;5113695;28;20084;-61
2021/06/15 08:49:46;;;;;;;4.38;2.20;;;;;;;19.06;55.36;96284.94;5113909;28;20028;-62
2021/06/15 08:52:13;;;;;;;5.20;1.85;;;;;;;19.17;56.50;96284.97;5113873;28;20085;-61
2021/06/15 08:54:38;;;;;;;4.85;2.00;;;;;;;19.26;56.15;96279.94;5113658;28;20028;-63
2021/06/15 08:57:05;;;;;;;2.50;1.92;;;;;;;19.36;56.14;96285.34;5113739;28;20037;-62
2021/06/15 08:59:30;;;;;;;3.03;1.77;;;;;;;19.47;55.46;96285.34;5113617;28;20046;-63
2021/06/15 09:01:58;;;;;;;4.70;1.88;;;;;;;19.56;56.51;96286.44;5113576;28;20469;-62
2021/06/15 09:04:24;;;;;;;4.32;1.60;;;;;;;19.66;55.06;96286.56;5113582;28;20023;-61
2021/06/15 09:06:59;;;;;;;5.78;1.58;;;;;;;19.83;53.59;96278.09;5113358;28;20110;-61
2021/06/15 09:09:42;;;;;;;2.28;1.63;;;;;;;20.01;53.60;96282.06;5113764;28;20446;-64
2021/06/15 09:12:09;;;;;;;2.75;1.23;;;;;;;20.14;52.80;96280.13;5113606;28;20027;-61
2021/06/15 09:14:56;;;;;;;2.20;1.52;;;;;;;20.28;52.22;96270.19;5113495;28;20119;-63
2021/06/15 09:17:28;;;;;;;3.67;1.50;;;;;;;20.29;53.52;96271.88;5113503;28;20064;-63
2021/06/15 09:20:21;;;;;;;1.33;1.20;;;;;;;20.37;51.20;96269.44;5113404;28;20642;-62
2021/06/15 09:23:17;;;;;;;3.08;1.48;;;;;;;20.27;51.68;96273.81;5113432;28;20024;-63
2021/06/15 09:25:48;;;;;;;3.40;1.27;;;;;;;20.43;51.52;96271.59;5092522;28;20039;-64
2021/06/15 09:28:21;;;;;;;3.22;1.30;;;;;;;20.58;50.52;96266.81;5113510;28;20118;-61
2021/06/15 09:30:57;;;;;;;2.55;1.10;;;;;;;20.59;50.66;96275.63;5113389;28;20103;-63
2021/06/15 09:33:39;;;;;;;3.42;1.27;;;;;;;20.65;52.72;96272.44;5113423;28;20035;-62
2021/06/15 09:36:27;;;;;;;8.57;1.33;;;;;;;20.62;50.47;96275.34;5113259;28;20031;-63
2021/06/15 09:38:58;;;;;;;4.80;1.50;;;;;;;20.61;48.98;96286.09;5113281;28;20492;-61
2021/06/15 09:41:45;;;;;;;3.75;1.23;;;;;;;20.43;49.85;96287.53;5113308;28;20466;-62
2021/06/15 09:44:21;;;;;;;1.25;0.70;;;;;;;20.41;48.01;96283.31;5113220;28;20032;-63
2021/06/15 09:47:02;;;;;;;1.80;1.10;;;;;;;20.28;47.72;96280.81;5113327;28;20027;-63
2021/06/15 09:49:30;;;;;;;0.80;0.80;;;;;;;20.36;48.90;96281.03;5113144;28;20458;-60
2021/06/15 09:52:21;;;;;;;1.63;1.20;;;;;;;20.51;47.78;96270.09;5113090;28;20066;-63
2021/06/15 09:54:48;;;;;;;4.03;1.13;;;;;;;20.52;53.53;96285.06;5113130;28;20036;-63
2021/06/15 09:57:25;;;;;;;2.92;0.90;;;;;;;20.46;47.04;96283.75;5112910;28;20035;-64
2021/06/15 10:00:17;;;;;;;1.58;0.75;;;;;;;20.52;47.54;96277.94;5113103;28;20032;-62
2021/06/15 10:02:54;;;;;;;1.95;1.23;;;;;;;20.52;47.72;96277.09;5113054;28;20072;-63
2021/06/15 10:05:33;;;;;;;3.05;0.90;;;;;;;20.60;46.77;96269.34;5113048;28;20031;-60
2021/06/15 10:08:02;;;;;;;3.42;1.23;;;;;;;20.64;47.30;96273.44;5112907;28;20016;-60
2021/06/15 10:10:36;;;;;;;1.58;0.98;;;;;;;20.79;47.42;96267.78;5112871;28;20118;-62
2021/06/15 10:13:02;;;;;;;5.13;1.15;;;;;;;20.99;47.58;96263.50;5113017;28;20059;-63
2021/06/15 10:15:29;;;;;;;4.10;1.00;;;;;;;20.94;49.51;96271.84;5112827;28;20122;-61
2021/06/15 10:17:56;;;;;;;2.03;1.10;;;;;;;20.94;48.15;96271.00;5114831;28;20085;-61
2021/06/15 10:20:25;;;;;;;1.42;0.80;;;;;;;21.15;46.92;96289.59;5116695;28;20372;-63
2021/06/15 10:22:51;;;;;;;0.93;0.93;;;;;;;21.09;43.50;96276.84;5116587;28;20102;-62
2021/06/15 10:25:20;;;;;;;2.85;0.90;;;;;;;20.99;45.61;96284.75;5116537;28;20484;-63
2021/06/15 10:27:46;;;;;;;1.02;0.90;;;;;;;20.89;46.36;96281.16;5116569;28;20461;-63
2021/06/15 10:30:14;;;;;;;2.67;1.00;;;;;;;20.77;45.48;96280.38;5116434;28;20057;-61
2021/06/15 10:33:16;;;;;;;3.05;1.35;;;;;;;20.79;48.47;96281.06;5116378;28;20477;-63
2021/06/15 10:35:57;;;;;;;2.50;1.45;;;;;;;20.93;48.33;96279.97;5013867;28;20129;-62
2021/06/15 10:38:28;;;;;;;1.10;0.88;;;;;;;21.05;46.45;96273.59;5106620;28;20039;-63
2021/06/15 10:40:56;;;;;;;4.00;1.38;;;;;;;21.25;47.73;96270.22;5116276;28;20477;-61
2021/06/15 10:43:26;;;;;;;1.27;0.90;;;;;;;21.52;47.16;96274.94;5116238;28;20107;-60
2021/06/15 10:46:06;;;;;;;2.15;1.00;;;;;;;21.71;45.88;96268.84;5116070;28;20038;-62
2021/06/15 10:48:40;;;;;;;1.17;1.00;;;;;;;21.85;44.66;96250.84;5116030;28;20422;-62
2021/06/15 10:51:28;;;;;;;0.95;0.80;;;;;;;21.81;45.10;96255.63;5116088;28;20381;-60
2021/06/15 10:54:02;;;;;;;1.65;0.85;;;;;;;21.89;45.00;96252.28;5116073;28;20047;-60
2021/06/15 10:56:31;;;;;;;1.75;0.80;;;;;;;21.81;45.54;96255.63;5116000;28;20019;-64
2021/06/15 10:59:02;;;;;;;0.70;0.67;;;;;;;21.79;47.11;96249.59;5115786;28;20114;-61
2021/06/15 11:01:30;;;;;;;2.78;0.70;;;;;;;21.93;43.38;96251.03;5115922;28;20115;-62
2021/06/15 11:04:00;;;;;;;0.73;0.70;;;;;;;21.94;44.07;96244.72;5115853;28;20032;-62
2021/06/15 11:06:28;;;;;;;2.83;1.00;;;;;;;22.01;42.28;96241.50;5115934;28;20477;-63
2021/06/15 11:09:03;;;;;;;1.67;0.77;;;;;;;21.97;43.28;96235.59;5115665;28;20119;-62
2021/06/15 11:11:30;;;;;;;3.78;1.00;;;;;;;21.98;42.03;96241.78;5115577;28;20026;-62
2021/06/15 11:14:04;;;;;;;1.17;0.80;;;;;;;21.86;42.83;96236.59;5115499;28;20023;-61
2021/06/15 11:16:45;;;;;;;0.85;0.85;;;;;;;21.71;43.66;96233.44;5115394;28;20481;-60
2021/06/15 11:19:11;;;;;;;0.93;0.80;;;;;;;21.34;42.99;96229.50;5115394;28;20035;-63
2021/06/15 11:22:08;;;;;;;1.38;0.82;;;;;;;21.15;42.98;96231.13;5115361;28;20027;-60
2021/06/15 11:24:50;;;;;;;4.93;0.88;;;;;;;21.04;44.26;96225.88;5115528;28;20055;-61
2021/06/15 11:27:37;;;;;;;4.10;0.80;;;;;;;20.83;46.02;96221.41;5115351;28;20031;-61
2021/06/15 11:30:11;;;;;;;0.95;0.80;;;;;;;20.76;44.77;96223.72;5115354;28;20027;-63
2021/06/15 11:32:37;;;;;;;0.80;0.80;;;;;;;20.61;46.31;96225.00;5115122;28;20058;-63
2021/06/15 11:35:03;;;;;;;1.23;0.82;;;;;;;20.63;46.09;96231.03;5115176;28;20047;-63
2021/06/15 11:37:37;;;;;;;0.80;0.80;;;;;;;20.36;45.82;96222.59;5114918;28;20031;-62
2021/06/15 11:40:09;;;;;;;3.15;0.75;;;;;;;20.18;46.59;96232.94;5115133;28;20365;-63
2021/06/15 11:42:36;;;;;;;1.20;0.70;;;;;;;20.20;46.42;96231.81;5115078;28;20031;-61
2021/06/15 11:45:02;;;;;;;3.78;0.80;;;;;;;20.18;46.03;96230.28;5114929;28;20111;-62
2021/06/15 11:47:37;;;;;;;1.67;0.80;;;;;;;19.99;44.96;96233.56;5114860;28;20111;-61
2021/06/15 11:50:18;;;;;;;1.67;0.70;;;;;;;19.79;46.65;96236.00;5114987;28;20024;-61